Thunder radar more information blitzortung!


Radar de pluja more information rain snow radar


Visita la nostra xarxa de llocs de meteo:

Template documentation
and downloads

And another site



No particular awareness of the weather is required.    There are no Weather-warnings

Pagina Historial Weather Underground text

Diari Resum Marc 11, 2016 Unitats:  Mètric    Imperial   Tant
« Previous Dia
SegĂźent Dia »
Diari Setmana Mensual Anual Personalitzada
  Maxima: Minima: Media:
Temperatura: -17.8 °C -16.3 °C -11.4 °C
Punt de rosada: -17.8 °C -20.8 °C -17.9 °C
Humitat: Humidity % 30 % 45 %
Wind Speed: 0 km/h 0 km/h 9.5 km/h
RĂ fegues de vent: 0 km/h - -
Vent:- - ESE
Pression baro: 0 hPa 34395 hPa -
Precipitacions: 0 mm    
Historical Graphs
 
 
Dades de taula per Marc 11, 2016
Temps Temperatura Punt de rosada Pression baro Vent Wind Speed RĂ fegues de vent Humitat Rainfall Rate (Hourly)
-17.8 °C -17.8 °C 0 hPa Calm     Humidity % 0 mm
00:10 -16.2 °C -20.8 °C 34395 hPa Calm     54 % 0 mm
00:30 -16.2 °C -20.8 °C 34428.8 hPa WSW 2.6 km/h 5.1 km/h 54 % 0 mm
00:40 -16.2 °C -20.7 °C 34428.8 hPa Calm     55 % 0 mm
00:50 -16.1 °C -20.4 °C 34428.8 hPa SW 2.6 km/h 2.6 km/h 57 % 0 mm
01:00 -16.2 °C -20.6 °C 34428.8 hPa NE 2.6 km/h 7.7 km/h 56 % 0 mm
01:10 -16.2 °C -20.6 °C 34428.8 hPa NNE 2.6 km/h 5.1 km/h 56 % 0 mm
01:20 -16.3 °C -20.7 °C 34428.8 hPa NNE 2.6 km/h 5.1 km/h 56 % 0 mm
01:30 -16.2 °C -20.4 °C 34428.8 hPa NNE 2.6 km/h 5.1 km/h 57 % 0 mm
01:40 -16.1 °C -20.4 °C 34428.8 hPa NNE 2.6 km/h 5.1 km/h 56 % 0 mm
01:50 -15.9 °C -20.3 °C 34462.7 hPa NNE 2.6 km/h 5.1 km/h 56 % 0 mm
02:00 -15.7 °C -20.1 °C 34462.7 hPa NNE 2.6 km/h 5.1 km/h 56 % 0 mm
02:10 -15.4 °C -19.8 °C 34462.7 hPa NNE 5.1 km/h 5.1 km/h 56 % 0 mm
02:20 -15.3 °C -19.8 °C 34462.7 hPa NE 2.6 km/h 10.3 km/h 56 % 0 mm
02:30 -14.9 °C -19.4 °C 34462.7 hPa NE 2.6 km/h 5.1 km/h 56 % 0 mm
02:50 -14.8 °C -19.4 °C 34462.7 hPa NNE 5.1 km/h 12.9 km/h 55 % 0 mm
03:00 -14.6 °C -19.3 °C 34462.7 hPa North 7.7 km/h 7.7 km/h 55 % 0 mm
03:10 -14.4 °C -19.1 °C 34462.7 hPa NNE 7.7 km/h 10.3 km/h 55 % 0 mm
03:20 -14.1 °C -18.8 °C 34428.8 hPa NE 2.6 km/h 5.1 km/h 54 % 0 mm
03:30 -13.8 °C -18.7 °C 34462.7 hPa NE 5.1 km/h 7.7 km/h 54 % 0 mm
03:40 -13.8 °C -18.7 °C 34462.7 hPa NE 5.1 km/h 7.7 km/h 54 % 0 mm
03:50 -13.3 °C -18.2 °C 34462.7 hPa NE 2.6 km/h 5.1 km/h 54 % 0 mm
04:00 -13.4 °C -18.4 °C 34428.8 hPa NNE 5.1 km/h 10.3 km/h 53 % 0 mm
04:10 -13.1 °C -18.1 °C 34428.8 hPa ENE 2.6 km/h 7.7 km/h 53 % 0 mm
04:20 -12.8 °C -17.9 °C 34462.7 hPa ESE 5.1 km/h 7.7 km/h 53 % 0 mm
04:30 -12.7 °C -17.7 °C 34428.8 hPa SW 2.6 km/h 7.7 km/h 53 % 0 mm
04:40 -12.1 °C -17.3 °C 34428.8 hPa SSW 2.6 km/h 10.3 km/h 52 % 0 mm
04:50 -11.9 °C -17.1 °C 34462.7 hPa East 5.1 km/h 7.7 km/h 52 % 0 mm
05:00 -11.7 °C -17.1 °C 34462.7 hPa SE 2.6 km/h 5.1 km/h 51 % 0 mm
05:10 -11.5 °C -16.9 °C 34462.7 hPa ESE 5.1 km/h 10.3 km/h 51 % 0 mm
05:20 -11.3 °C -16.8 °C 34496.6 hPa ENE 5.1 km/h 7.7 km/h 51 % 0 mm
05:30 -11.2 °C -16.7 °C 34462.7 hPa ESE 5.1 km/h 7.7 km/h 51 % 0 mm
05:40 -11.2 °C -16.8 °C 34462.7 hPa ENE 7.7 km/h 12.9 km/h 50 % 0 mm
05:50 -11 °C -16.6 °C 34462.7 hPa ENE 2.6 km/h 7.7 km/h 50 % 0 mm
06:00 -10.6 °C -16.4 °C 34462.7 hPa ESE 2.6 km/h 10.3 km/h 49 % 0 mm
06:10 -10.4 °C -16.6 °C 34462.7 hPa East 12.9 km/h 15.6 km/h 47 % 0 mm
12:11 -10.6 °C -16.6 °C 34462.7 hPa NE 15 km/h 15 km/h 48 % 0 mm
12:16 -10.4 °C -16.6 °C 34462.7 hPa ENE 6 km/h 6.8 km/h 47 % 0 mm
12:21 -10.2 °C -16.2 °C 34462.7 hPa South 9.3 km/h 9.3 km/h 48 % 0 mm
12:26 -10.2 °C -16.5 °C 34462.7 hPa ENE 11.9 km/h 11.9 km/h 46 % 0 mm
12:31 -10.3 °C -16.6 °C 34462.7 hPa ENE 9.3 km/h 9.3 km/h 46 % 0 mm
12:36 -10.2 °C -16.7 °C 34462.7 hPa ENE 7.6 km/h 7.6 km/h 45 % 0 mm
12:41 -9.7 °C -16.2 °C 34462.7 hPa SW 11.9 km/h 11.9 km/h 45 % 0 mm
12:46 -9.5 °C -16.4 °C 34462.7 hPa SSW 6 km/h 6 km/h 43 % 0 mm
12:51 -9.4 °C -16.3 °C 34462.7 hPa SW 11.9 km/h 11.9 km/h 43 % 0 mm
13:01 -9.2 °C -16.6 °C 34462.7 hPa ENE 14.5 km/h 14.5 km/h 41 % 0 mm
13:06 -9.5 °C -17.4 °C 34462.7 hPa ENE 9.3 km/h 9.3 km/h 38 % 0 mm
13:12 -9.3 °C -16.6 °C 34428.8 hPa SW 3.7 km/h 6.8 km/h 41 % 0 mm
13:17 -8.9 °C -16.5 °C 34428.8 hPa ENE 6 km/h 6.3 km/h 40 % 0 mm
13:22 -8.8 °C -16.2 °C 34428.8 hPa SW 6.3 km/h 6.3 km/h 41 % 0 mm
13:27 -8.7 °C -16.2 °C 34428.8 hPa ENE 6 km/h 6 km/h 40 % 0 mm
13:32 -8.6 °C -16.2 °C 34428.8 hPa ENE 8.5 km/h 8.5 km/h 40 % 0 mm
13:37 -8.6 °C -16.6 °C 34428.8 hPa SW 15.6 km/h 15.6 km/h 38 % 0 mm
13:42 -8.6 °C -17 °C 34428.8 hPa SW 11.9 km/h 11.9 km/h 36 % 0 mm
13:47 -8.3 °C -17 °C 34428.8 hPa WSW 16.6 km/h 16.6 km/h 35 % 0 mm
13:52 -8.5 °C -17.4 °C 34428.8 hPa SW 26.9 km/h 26.9 km/h 34 % 0 mm
13:57 -8.6 °C -17.9 °C 34428.8 hPa SW 17.9 km/h 17.9 km/h 32 % 0 mm
14:02 -8.5 °C -17.8 °C 34428.8 hPa SW 14.5 km/h 14.5 km/h 32 % 0 mm
14:07 -8.3 °C -17.6 °C 34428.8 hPa East 17.9 km/h 17.9 km/h 32 % 0 mm
14:12 -8.2 °C -17.6 °C 34395 hPa SW 15 km/h 15 km/h 32 % 0 mm
14:17 -8.2 °C -17.6 °C 34395 hPa WSW 26.9 km/h 26.9 km/h 32 % 0 mm
14:22 -8.2 °C -17.6 °C 34395 hPa West 20.9 km/h 20.9 km/h 32 % 0 mm
14:27 -8.3 °C -17.6 °C 34395 hPa West 17.9 km/h 17.9 km/h 32 % 0 mm
14:32 -8.3 °C -17.9 °C 34395 hPa WSW 15 km/h 15 km/h 31 % 0 mm
14:37 -8.2 °C -17.6 °C 34395 hPa WSW 9 km/h 9 km/h 32 % 0 mm
14:42 -8.1 °C -17.7 °C 34395 hPa SSW 15.6 km/h 15.6 km/h 31 % 0 mm
14:47 -8.1 °C -17.5 °C 34395 hPa NNW 9 km/h 9 km/h 32 % 0 mm
14:52 -8 °C -17.4 °C 34395 hPa WSW 14 km/h 14 km/h 32 % 0 mm
14:57 -8 °C -17.4 °C 34395 hPa SSW 15 km/h 15 km/h 32 % 0 mm
15:02 -7.8 °C -17.5 °C 34395 hPa SW 9 km/h 9 km/h 31 % 0 mm
15:07 -7.9 °C -17.6 °C 34395 hPa West 9.8 km/h 9.8 km/h 31 % 0 mm
15:12 -7.8 °C -17.4 °C 34395 hPa West 18.3 km/h 18.3 km/h 31 % 0 mm
15:17 -7.9 °C -17.6 °C 34395 hPa West 11.9 km/h 11.9 km/h 31 % 0 mm
15:22 -8 °C -17.6 °C 34395 hPa SW 15 km/h 15 km/h 31 % 0 mm
15:27 -7.9 °C -17.6 °C 34395 hPa SW 7.6 km/h 7.6 km/h 31 % 0 mm
15:32 -7.9 °C -17.6 °C 34395 hPa WSW 17.9 km/h 17.9 km/h 31 % 0 mm
15:37 -7.9 °C -17.6 °C 34395 hPa WSW 11.9 km/h 11.9 km/h 31 % 0 mm
15:42 -7.7 °C -17.6 °C 34395 hPa SW 6.3 km/h   30 % 0 mm
15:47 -7.6 °C -17.5 °C 34395 hPa WSW 9 km/h 9 km/h 30 % 0 mm
15:52 -7.7 °C -17.6 °C 34395 hPa WSW 9.8 km/h 9.8 km/h 30 % 0 mm
15:57 -7.7 °C -17.6 °C 34395 hPa WSW 9 km/h 9 km/h 30 % 0 mm
16:02 -7.9 °C -17.8 °C 34395 hPa South 9.8 km/h 9.8 km/h 30 % 0 mm
16:07 -8.2 °C -17.8 °C 34395 hPa NNE 15 km/h 15 km/h 31 % 0 mm
16:12 -8.8 °C -18.1 °C 34395 hPa East 23.8 km/h 23.8 km/h 32 % 0 mm
16:17 -9.3 °C -18.3 °C 34395 hPa ENE 17.9 km/h 19.6 km/h 33 % 0 mm
16:22 -9.4 °C -18.4 °C 34395 hPa East 17.9 km/h 17.9 km/h 33 % 0 mm
16:27 -9.8 °C -18.8 °C 34428.8 hPa NE 23.8 km/h 23.8 km/h 33 % 0 mm
16:32 -9.9 °C -18.6 °C 34428.8 hPa ENE 29.8 km/h 29.8 km/h 34 % 0 mm
16:37 -10.1 °C -18.8 °C 34428.8 hPa East 29.8 km/h 29.8 km/h 34 % 0 mm
16:42 -10.2 °C -18.9 °C 34428.8 hPa ESE 32.8 km/h 32.8 km/h 34 % 0 mm
16:47 -10.2 °C -18.7 °C 34428.8 hPa ENE 23.8 km/h 23.8 km/h 35 % 0 mm
16:52 -10.2 °C -18.7 °C 34428.8 hPa NNE 26.9 km/h 26.9 km/h 35 % 0 mm
16:57 -10.3 °C -18.8 °C 34428.8 hPa East 17.9 km/h 19.2 km/h 35 % 0 mm
17:02 -10.3 °C -18.8 °C 34428.8 hPa ESE 26.4 km/h 26.4 km/h 35 % 0 mm
17:07 -10.4 °C -18.4 °C 34428.8 hPa SSE 17.9 km/h 17.9 km/h 37 % 0 mm
17:12 -10.4 °C -18.4 °C 34462.7 hPa SE 22 km/h 22 km/h 37 % 0 mm
17:17 -10.5 °C -18.3 °C 34462.7 hPa East 26.9 km/h 26.9 km/h 38 % 0 mm
17:22 -10.6 °C -18.3 °C 34462.7 hPa East 27.2 km/h 27.2 km/h 38 % 0 mm
17:27 -10.7 °C -18.2 °C 34462.7 hPa ENE 24.3 km/h 24.3 km/h 39 % 0 mm
17:32 -10.7 °C -18.5 °C 34462.7 hPa ESE 12.7 km/h 18.3 km/h 38 % 0 mm
17:47 -10.8 °C -18.4 °C 34462.7 hPa ESE 18.3 km/h 18.3 km/h 39 % 0 mm
17:52 -10.9 °C -18.2 °C 34462.7 hPa East 15 km/h 15 km/h 40 % 0 mm
17:57 -10.9 °C -18.3 °C 34462.7 hPa ESE 26.9 km/h 26.9 km/h 40 % 0 mm
18:02 -10.9 °C -18.3 °C 34462.7 hPa ENE 15 km/h 15 km/h 40 % 0 mm
18:07 -11 °C -18.3 °C 34462.7 hPa East 15.3 km/h 15.3 km/h 40 % 0 mm
18:12 -11.1 °C -18.2 °C 34462.7 hPa ESE 15.6 km/h 17.4 km/h 41 % 0 mm
18:17 -11.1 °C -18.3 °C 34462.7 hPa ESE 17.9 km/h 17.9 km/h 41 % 0 mm
18:22 -11.2 °C -18.3 °C 34462.7 hPa ENE 15 km/h 15 km/h 41 % 0 mm
18:27 -11.2 °C -18.2 °C 34462.7 hPa East 17.9 km/h 17.9 km/h 42 % 0 mm
18:32 -11.3 °C -18.2 °C 34462.7 hPa ENE 11.9 km/h 11.9 km/h 42 % 0 mm
18:37 -11.3 °C -18.2 °C 34462.7 hPa East 11.9 km/h 11.9 km/h 42 % 0 mm
18:42 -11.3 °C -18.3 °C 34496.6 hPa East 14.5 km/h 14.5 km/h 42 % 0 mm
18:46 -11.4 °C -18.3 °C 34496.6 hPa ENE 15 km/h 15 km/h 42 % 0 mm
18:50 -11.4 °C -18.2 °C 34496.6 hPa NE 11.9 km/h 11.9 km/h 43 % 0 mm
18:52 -11.4 °C -18.2 °C 34496.6 hPa ENE 9.8 km/h 9.8 km/h 43 % 0 mm
18:54 -11.4 °C -18.2 °C 34496.6 hPa ENE 11.9 km/h 11.9 km/h 43 % 0 mm
18:59 -11.5 °C -18.2 °C 34496.6 hPa ESE 9.3 km/h 9.3 km/h 43 % 0 mm
19:01 -11.5 °C -18.2 °C 34496.6 hPa ENE 9 km/h 12.2 km/h 43 % 0 mm
19:06 -11.6 °C -18.1 °C 34496.6 hPa ESE 15 km/h 15 km/h 44 % 0 mm
19:07 -11.6 °C -18.2 °C 34496.6 hPa ESE 15 km/h 15 km/h 44 % 0 mm
19:08 -11.6 °C -18.2 °C 34496.6 hPa NE 11.9 km/h 11.9 km/h 44 % 0 mm
19:09 -11.6 °C -18.2 °C 34496.6 hPa ESE 14 km/h 14 km/h 44 % 0 mm
19:14 -11.6 °C -18.2 °C 34496.6 hPa East 9.3 km/h 9.3 km/h 44 % 0 mm
19:19 -11.7 °C -18.1 °C 34496.6 hPa East 11.9 km/h 11.9 km/h 45 % 0 mm
19:24 -11.7 °C -18.1 °C 34496.6 hPa NE 11.9 km/h 11.9 km/h 45 % 0 mm
19:28 -11.8 °C -18.2 °C 34533.8 hPa ESE 10.3 km/h 10.3 km/h 45 % 0 mm
19:33 -11.8 °C -18.2 °C 34533.8 hPa ENE 9.8 km/h 9.8 km/h 45 % 0 mm
19:38 -11.8 °C -18 °C 34533.8 hPa ENE 15.6 km/h 15.6 km/h 46 % 0 mm
19:40 -11.9 °C -18.1 °C 34533.8 hPa ESE 11.9 km/h 11.9 km/h 46 % 0 mm
19:41 -11.9 °C -18.1 °C 34533.8 hPa NNE 11.9 km/h 11.9 km/h 46 % 0 mm
19:43 -11.9 °C -18.1 °C 34533.8 hPa ENE 9 km/h 9 km/h 46 % 0 mm
19:44 -11.9 °C -18.2 °C 34533.8 hPa East 9.3 km/h 9.3 km/h 46 % 0 mm
19:45 -11.9 °C -18.2 °C 34533.8 hPa East 9 km/h 9 km/h 46 % 0 mm
19:47 -11.9 °C -18.2 °C 34533.8 hPa East 9 km/h 9.3 km/h 46 % 0 mm
19:49 -12 °C -18.2 °C 34533.8 hPa ESE 15 km/h 15 km/h 46 % 0 mm
19:54 -12.1 °C -18.1 °C 34533.8 hPa East 9 km/h 9.8 km/h 47 % 0 mm
19:59 -12.1 °C -18.1 °C 34533.8 hPa East 11.9 km/h 11.9 km/h 47 % 0 mm
20:04 -12.1 °C -17.9 °C 34533.8 hPa East 9 km/h 9.8 km/h 48 % 0 mm
20:09 -12.2 °C -17.9 °C 34533.8 hPa East 11.9 km/h 11.9 km/h 49 % 0 mm
20:14 -12.2 °C -17.9 °C 34496.6 hPa ENE 6 km/h 6 km/h 49 % 0 mm
20:19 -12.2 °C -17.7 °C 34496.6 hPa East 8.5 km/h 8.5 km/h 50 % 0 mm
20:24 -12.3 °C -17.8 °C 34496.6 hPa East 6.3 km/h 6.3 km/h 50 % 0 mm
20:29 -12.3 °C -17.8 °C 34496.6 hPa East 6.3 km/h 6.3 km/h 50 % 0 mm
20:34 -12.3 °C -17.8 °C 34533.8 hPa ENE 6 km/h 6 km/h 50 % 0 mm
20:39 -12.4 °C -17.7 °C 34533.8 hPa ESE 6 km/h 6 km/h 51 % 0 mm
20:44 -12.4 °C -17.7 °C 34567.7 hPa ENE 3.7 km/h 3.7 km/h 52 % 0 mm
20:49 -12.4 °C -17.7 °C 34567.7 hPa ENE 6 km/h 6 km/h 52 % 0 mm
20:54 -12.4 °C -17.7 °C 34567.7 hPa ENE 3.7 km/h 3.7 km/h 52 % 0 mm
21:00 -12.4 °C -17.7 °C 34601.5 hPa ENE 2.6 km/h 5.1 km/h 52 % 0 mm
21:05 -12.4 °C -17.7 °C 34601.5 hPa ENE 2.6 km/h 5.1 km/h 52 % 0 mm
21:10 -12.6 °C -17.7 °C 34601.5 hPa SW 2.6 km/h 5.1 km/h 52 % 0 mm
21:15 -12.6 °C -17.6 °C 34567.7 hPa SW 2.6 km/h 5.1 km/h 53 % 0 mm
21:20 -12.6 °C -17.6 °C 34567.7 hPa ENE 2.6 km/h 5.1 km/h 53 % 0 mm
21:25 -12.6 °C -17.6 °C 34567.7 hPa Calm   2.6 km/h 53 % 0 mm
21:30 -12.6 °C -17.6 °C 34567.7 hPa ENE 2.6 km/h 5.1 km/h 53 % 0 mm
21:35 -12.6 °C -17.7 °C 34567.7 hPa NE 2.6 km/h 5.1 km/h 53 % 0 mm
21:40 -12.6 °C -17.7 °C 34567.7 hPa NE 5.1 km/h 10.3 km/h 53 % 0 mm
21:45 -13 °C -18 °C 34567.7 hPa Calm   10.3 km/h 53 % 0 mm
21:50 -13 °C -18 °C 34567.7 hPa Calm     53 % 0 mm
22:00 -13.1 °C -17.9 °C 34601.5 hPa Calm   2.6 km/h 54 % 0 mm
22:05 -13.1 °C -18 °C 34601.5 hPa Calm   2.6 km/h 54 % 0 mm
22:10 -13.1 °C -18 °C 34601.5 hPa Calm     54 % 0 mm
22:20 -13.2 °C -17.9 °C 34567.7 hPa Calm     55 % 0 mm
22:25 -13.2 °C -17.9 °C 34567.7 hPa Calm     55 % 0 mm
22:30 -13.2 °C -17.9 °C 34601.5 hPa Calm     55 % 0 mm
22:35 -13.2 °C -17.8 °C 34601.5 hPa Calm     56 % 0 mm
22:40 -13.2 °C -17.8 °C 34601.5 hPa Calm     56 % 0 mm
22:45 -13.2 °C -17.8 °C 34601.5 hPa Calm     56 % 0 mm
22:50 -13.2 °C -17.7 °C 34601.5 hPa Calm     57 % 0 mm
22:55 -13.2 °C -17.7 °C 34601.5 hPa Calm     57 % 0 mm
23:00 -13.3 °C -17.7 °C 34601.5 hPa Calm     57 % 0 mm
23:05 -13.3 °C -17.7 °C 34601.5 hPa Calm   2.6 km/h 57 % 0 mm
23:10 -13.3 °C -17.7 °C 34601.5 hPa Calm   2.6 km/h 58 % 0 mm
23:15 -13.3 °C -17.7 °C 34601.5 hPa Calm     58 % 0 mm
23:20 -13.3 °C -17.6 °C 34601.5 hPa Calm     59 % 0 mm
23:25 -13.4 °C -17.6 °C 34601.5 hPa Calm     59 % 0 mm
23:30 -13.4 °C -17.6 °C 34601.5 hPa Calm   2.6 km/h 59 % 0 mm
23:35 -13.4 °C -17.5 °C 34601.5 hPa Calm   2.6 km/h 60 % 0 mm
Meteo Sesrovires
Elogis d' Weather Underground - 1.5 mb

Guio original per  Jim McMurry - jmcmurry@mwt.net Adaptat per a la plantilla per  Wim van der Kuil - Leuven-Template.eu

Trobareu la nostra informacio del temps tambe a:

Weather Underground

AWEKAS